Svitzer Stanlow — MLNF7 — position and weather

sailwx.info

Track history (hours):
 
Tides and Currents Weather Stations Pressure Air Temp Water Temp Dewpoint Dewpoint Depression Visibility Wind Speed Wind Dir Waves Ship Positions

Svitzer Stanlow

Last reported at 2015-May-28 07:33 UTC. Time now 2015-May-28 08:03 UTC.
Position N 53°23' W 003°00'.

Length 39 m.

Type: Tug. MMSI: 235010620.

Date/timePositionNaut miles runAvg speedWind from/ knotsBaromVisibWave heightAir tempDewpointWater temp
2015-May-28 07:33N 53°23' W 003°00'2 2.2
2015-May-28 06:33N 53°25' W 003°01'9 8.8
2015-May-28 05:33N 53°32' W 003°10'2 1.8
2015-May-28 04:33N 53°31' W 003°13'8 8.4
2015-May-28 03:33N 53°27' W 003°01'4 3.8
2015-May-28 02:29N 53°23' W 002°60'0 0.1
2015-May-28 01:33N 53°23' W 002°60'0 0.0
2015-May-28 00:33N 53°23' W 002°60'0 0.0
2015-May-27 23:33N 53°23' W 002°60'0 0.0
2015-May-27 22:33N 53°23' W 002°60'0 0.0
2015-May-27 21:27N 53°23' W 002°60'0 0.0
2015-May-27 20:33N 53°23' W 002°60'0 0.0
2015-May-27 19:33N 53°23' W 002°60'5 2.6
2015-May-27 17:33N 53°28' W 003°03'9 9.0
2015-May-27 16:33N 53°31' W 003°17'8 8.2
2015-May-27 15:33N 53°29' W 003°04'6 6.2
2015-May-27 14:32N 53°23' W 002°60'0 0.0
2015-May-27 13:26N 53°23' W 002°60'0 0.0
2015-May-27 12:32N 53°23' W 002°60'0 0.0
2015-May-27 11:32N 53°23' W 002°60'0 0.0
2015-May-27 10:29N 53°23' W 002°60'0 0.0
2015-May-27 09:29N 53°23' W 002°60'0 0.0
2015-May-27 08:32N 53°23' W 002°60'0 0.0
2015-May-27 07:32N 53°23' W 002°60'0 0.0
2015-May-27 06:32N 53°23' W 002°60'0 0.0
2015-May-27 05:32N 53°23' W 002°60'0 0.0
2015-May-27 04:29N 53°23' W 002°60'0 0.0
2015-May-27 03:32N 53°23' W 002°60'0 0.0
2015-May-27 02:29N 53°23' W 002°60'0 0.0
2015-May-27 01:28N 53°23' W 002°60'0 0.0
2015-May-27 00:31N 53°23' W 002°60'0 0.0
2015-May-26 23:31N 53°23' W 002°60'0 0.0
2015-May-26 22:31N 53°23' W 002°60'0 0.0
2015-May-26 21:31N 53°23' W 002°60'0 0.0
2015-May-26 20:31N 53°23' W 002°60'0 0.0
2015-May-26 19:31N 53°23' W 002°60'0 0.0
2015-May-26 18:31N 53°23' W 002°60'0 0.0
2015-May-26 17:31N 53°23' W 002°60'0 0.0
2015-May-26 16:31N 53°23' W 002°60'0 0.0
2015-May-26 15:25N 53°23' W 002°60'0 0.0
2015-May-26 14:31N 53°23' W 002°60'0 0.0
2015-May-26 13:31N 53°23' W 002°60'0 0.0
2015-May-26 12:31N 53°23' W 002°60'0 0.0
2015-May-26 11:31N 53°23' W 002°60'0 0.0
2015-May-26 10:31N 53°23' W 002°60'0 0.0
2015-May-26 09:31N 53°23' W 002°60'0 0.0
2015-May-26 08:28N 53°23' W 002°60'0 0.0
2015-May-26 07:28N 53°23' W 002°60'0 0.0
2015-May-26 06:31N 53°23' W 002°60'0 0.0
2015-May-26 05:31N 53°23' W 002°60'2 2.1
2015-May-26 04:33N 53°25' W 003°01'9 9.2
2015-May-26 03:33N 53°32' W 003°11'1 0.7
2015-May-26 02:33N 53°31' W 003°12'8 8.0
2015-May-26 01:33N 53°26' W 003°01'1 1.1
2015-May-26 00:31N 53°25' W 003°00'0 0.0
2015-May-25 23:31N 53°25' W 003°00'0 0.0
2015-May-25 22:31N 53°25' W 003°00'0 0.0
2015-May-25 21:28N 53°25' W 003°00'0 0.0
2015-May-25 20:31N 53°25' W 003°00'0 0.0
2015-May-25 19:31N 53°25' W 003°00'0 0.0
2015-May-25 18:31N 53°25' W 003°00'0 0.0
2015-May-25 17:28N 53°25' W 003°00'0 0.0
2015-May-25 16:31N 53°25' W 003°00'2 1.7
2015-May-25 15:28N 53°27' W 003°01'0 0.4
2015-May-25 14:33N 53°27' W 003°01'0 0.4
2015-May-25 13:33N 53°27' W 003°02'3 2.5
2015-May-25 12:33N 53°25' W 003°00'2 1.9
2015-May-25 11:33N 53°26' W 003°01'2 2.1
2015-May-25 10:33N 53°28' W 003°03'4 3.9
2015-May-25 09:33N 53°25' W 003°00'2 1.7
2015-May-25 08:31N 53°23' W 003°00'0 0.0
2015-May-25 07:31N 53°23' W 003°00'0 0.0
2015-May-25 06:31N 53°23' W 003°00'0 0.0
2015-May-25 05:31N 53°23' W 003°00'0 0.0
2015-May-25 04:31N 53°23' W 003°00'0 0.0
2015-May-25 03:31N 53°23' W 003°00'0 0.1
2015-May-25 02:29N 53°23' W 002°60'0 0.1
2015-May-25 01:31N 53°23' W 002°60'0 0.0
2015-May-25 00:31N 53°23' W 002°60'0 0.0
2015-May-24 23:31N 53°23' W 002°60'0 0.0
2015-May-24 22:31N 53°23' W 002°60'0 0.0
2015-May-24 21:31N 53°23' W 002°60'0 0.0
2015-May-24 20:28N 53°23' W 002°60'0 0.0
2015-May-24 19:31N 53°23' W 002°60'0 0.0
2015-May-24 18:28N 53°23' W 002°60'0 0.0
2015-May-24 17:31N 53°23' W 002°60'0 0.0
2015-May-24 16:28N 53°23' W 002°60'0 0.0
2015-May-24 15:22N 53°23' W 002°60'0 0.0
2015-May-24 14:31N 53°23' W 002°60'0 0.0
2015-May-24 13:28N 53°23' W 002°60'0 0.0
2015-May-24 12:31N 53°23' W 002°60'0 0.0
2015-May-24 11:31N 53°23' W 002°60'0 0.0
2015-May-24 10:31N 53°23' W 002°60'0 0.0
2015-May-24 09:31N 53°23' W 002°60'2 1.9
2015-May-24 08:33N 53°24' W 003°00'1 0.7
2015-May-24 07:32N 53°24' W 003°00'1 1.0
2015-May-24 06:33N 53°23' W 002°60'0 0.2
2015-May-24 05:31N 53°23' W 002°60'0 0.0
2015-May-24 04:28N 53°23' W 002°60'0 0.0
2015-May-24 03:28N 53°23' W 002°60'0 0.0
2015-May-24 02:31N 53°23' W 002°60'0 0.0
2015-May-24 01:31N 53°23' W 002°60'0 0.0
2015-May-24 00:28N 53°23' W 002°60'0 0.0
2015-May-23 23:31N 53°23' W 002°60'0 0.0
2015-May-23 22:28N 53°23' W 002°60'0 0.0
2015-May-23 21:31N 53°23' W 002°60'0 0.0
2015-May-23 20:31N 53°23' W 002°60'0 0.0
2015-May-23 19:28N 53°23' W 002°60'0 0.0
2015-May-23 18:31N 53°23' W 002°60'0 0.0
2015-May-23 17:31N 53°23' W 002°60'0 0.0
2015-May-23 16:22N 53°23' W 002°60'0 0.0
2015-May-23 15:28N 53°23' W 002°60'0 0.5
2015-May-23 14:31N 53°23' W 003°00'6 5.8
2015-May-23 13:33N 53°28' W 003°04'9 9.0
2015-May-23 12:33N 53°31' W 003°18'8 7.8
2015-May-23 11:33N 53°30' W 003°05'7 7.5
2015-May-23 10:34N 53°23' W 002°60'0 0.3
2015-May-23 09:31N 53°23' W 002°60'0 0.0
2015-May-23 08:31N 53°23' W 002°60'0 0.0
2015-May-23 07:31N 53°23' W 002°60'0 0.0
2015-May-23 06:28N 53°23' W 002°60'0 0.0
2015-May-23 05:25N 53°23' W 002°60'0 0.0
2015-May-23 04:31N 53°23' W 002°60'0 0.0
2015-May-23 03:25N 53°23' W 002°60'0 0.0
2015-May-23 02:31N 53°23' W 002°60'0 0.0
2015-May-23 01:28N 53°23' W 002°60'0 0.0
2015-May-23 00:31N 53°23' W 002°60'0 0.0
2015-May-22 23:31N 53°23' W 002°60'0 0.0
2015-May-22 22:31N 53°23' W 002°60'0 0.0
2015-May-22 21:31N 53°23' W 002°60'0 0.0
2015-May-22 20:31N 53°23' W 002°60'0 0.0
2015-May-22 19:31N 53°23' W 002°60'0 0.0
2015-May-22 18:31N 53°23' W 002°60'0 0.0
2015-May-22 17:31N 53°23' W 002°60'0 0.0
2015-May-22 16:28N 53°23' W 002°60'0 0.0
2015-May-22 15:31N 53°23' W 002°60'0 0.0
2015-May-22 14:31N 53°23' W 002°60'0 0.0
2015-May-22 13:31N 53°23' W 002°60'0 0.0
2015-May-22 12:31N 53°23' W 002°60'0 0.0
2015-May-22 11:31N 53°23' W 002°60'0 0.0
2015-May-22 10:31N 53°23' W 002°60'0 0.0
2015-May-22 09:31N 53°23' W 002°60'0 0.0
2015-May-22 08:31N 53°23' W 002°60'0 0.0
2015-May-22 07:31N 53°23' W 002°60'0 0.0
2015-May-22 06:34N 53°23' W 002°60'0 0.0
2015-May-22 05:33N 53°23' W 002°60'0 0.0
2015-May-22 04:33N 53°23' W 002°60'0 0.0
2015-May-22 03:33N 53°23' W 002°60'0 0.0
2015-May-22 02:33N 53°23' W 002°60'0 0.2
2015-May-22 01:28N 53°23' W 003°00'4 4.9
2015-May-22 00:33N 53°27' W 003°02'8 8.4
2015-May-21 23:33N 53°31' W 003°15'6 6.1
2015-May-21 22:33N 53°29' W 003°05'4 3.9
2015-May-21 21:32N 53°26' W 003°01'1 0.9
2015-May-21 20:29N 53°25' W 003°00'0 0.0
2015-May-21 19:32N 53°25' W 003°00'0 0.0
2015-May-21 18:32N 53°25' W 003°00'0 0.0
2015-May-21 17:32N 53°25' W 003°00'0 0.0
2015-May-21 16:32N 53°25' W 003°00'0 0.0
2015-May-21 15:32N 53°25' W 003°00'0 0.0
2015-May-21 14:32N 53°25' W 003°00'2 1.9
2015-May-21 13:29N 53°27' W 003°01'0 0.4
2015-May-21 12:33N 53°27' W 003°01'2 1.6
2015-May-21 11:31N 53°25' W 003°00'0 0.0
2015-May-21 10:31N 53°25' W 003°00'0 0.0
2015-May-21 09:31N 53°25' W 003°00'0 0.0
2015-May-21 08:31N 53°25' W 003°00'0 0.0
2015-May-21 07:31N 53°25' W 003°00'0 0.0
2015-May-21 06:31N 53°25' W 003°00'0 0.0
2015-May-21 05:31N 53°25' W 003°00'0 0.0
2015-May-21 04:31N 53°25' W 003°00'0 0.0
2015-May-21 03:28N 53°25' W 003°00'0 0.0
2015-May-21 02:31N 53°25' W 003°00'0 0.0
2015-May-21 01:31N 53°25' W 003°00'0 0.0
2015-May-21 00:28N 53°25' W 003°00'0 0.0
2015-May-20 23:31N 53°25' W 003°00'0 0.0
2015-May-20 22:31N 53°25' W 003°00'2 1.5
2015-May-20 21:32N 53°27' W 003°01'4 4.2
2015-May-20 20:30N 53°23' W 002°60'0 0.2
2015-May-20 19:28N 53°23' W 003°00'0 0.0
2015-May-20 18:31N 53°23' W 003°00'0 0.0
2015-May-20 17:31N 53°23' W 003°00'0 0.0
2015-May-20 16:31N 53°23' W 003°00'0 0.0
2015-May-20 15:31N 53°23' W 003°00'0 0.0
2015-May-20 14:31N 53°23' W 003°00'0 0.0
2015-May-20 13:31N 53°23' W 003°00'0 0.0
2015-May-20 12:31N 53°23' W 003°00'0 0.0
2015-May-20 11:31N 53°23' W 003°00'0 0.0
2015-May-20 10:31N 53°23' W 003°00'0 0.0
2015-May-20 09:25N 53°23' W 003°00'0 0.0
2015-May-20 08:31N 53°23' W 003°00'0 0.0
2015-May-20 07:31N 53°23' W 003°00'0 0.0
2015-May-20 06:33N 53°23' W 003°00'0 0.0
2015-May-20 05:33N 53°23' W 003°00'0 0.0
2015-May-20 04:33N 53°23' W 003°00'0 0.0
2015-May-20 03:33N 53°23' W 003°00'0 0.0
2015-May-20 02:33N 53°23' W 003°00'0 0.0
2015-May-20 01:33N 53°23' W 003°00'0 0.0
2015-May-20 00:33N 53°23' W 003°00'0 0.0
2015-May-19 23:33N 53°23' W 003°00'0 0.0
2015-May-19 22:33N 53°23' W 003°00'0 0.1
2015-May-19 21:33N 53°23' W 002°60'1 1.4
2015-May-19 20:32N 53°24' W 003°00'0 0.0
2015-May-19 19:33N 53°24' W 002°60'1 1.5
2015-May-19 18:32N 53°23' W 003°00'0 0.0
2015-May-19 17:32N 53°23' W 003°00'0 0.0
2015-May-19 16:32N 53°23' W 003°00'0 0.0
2015-May-19 15:26N 53°23' W 003°00'0 0.0
2015-May-19 14:32N 53°23' W 003°00'0 0.0
2015-May-19 13:32N 53°23' W 003°00'0 0.0
2015-May-19 12:32N 53°23' W 003°00'0 0.0
2015-May-19 11:32N 53°23' W 003°00'0 0.0
2015-May-19 10:32N 53°23' W 003°00'0 0.0
2015-May-19 09:32N 53°23' W 003°00'0 0.0
2015-May-19 08:29N 53°23' W 003°00'0 0.0
2015-May-19 07:32N 53°23' W 003°00'0 0.0
2015-May-19 06:29N 53°23' W 003°00'0 0.0
2015-May-19 05:32N 53°23' W 003°00'0 0.0
2015-May-19 04:32N 53°23' W 003°00'0 0.0
2015-May-19 03:32N 53°23' W 003°00'0 0.0
2015-May-19 02:32N 53°23' W 003°00'0 0.0
2015-May-19 01:32N 53°23' W 003°00'0 0.0
2015-May-19 00:32N 53°23' W 003°00'0 0.0
2015-May-18 23:29N 53°23' W 003°00'0 0.0
2015-May-18 22:29N 53°23' W 003°00'0 0.0
2015-May-18 21:28N 53°23' W 003°00'0 0.0
2015-May-18 20:22N 53°23' W 003°00'0 0.0
2015-May-18 19:28N 53°23' W 003°00'0 0.0
2015-May-18 18:31N 53°23' W 003°00'0 0.0
2015-May-18 17:31N 53°23' W 003°00'0 0.0
2015-May-18 16:31N 53°23' W 003°00'0 0.0
2015-May-18 15:31N 53°23' W 003°00'0 0.0
2015-May-18 14:31N 53°23' W 003°00'0 0.0
2015-May-18 13:28N 53°23' W 003°00'0 0.0
2015-May-18 12:31N 53°23' W 003°00'0 0.0
2015-May-18 11:31N 53°23' W 003°00'0 0.0
2015-May-18 10:25N 53°23' W 003°00'0 0.0
2015-May-18 09:31N 53°23' W 003°00'0 0.0
2015-May-18 08:31N 53°23' W 003°00'  
Track history (hours):
 
Tides and Currents Weather Stations Pressure Air Temp Water Temp Dewpoint Dewpoint Depression Visibility Wind Speed Wind Dir Waves Ship Positions

Svitzer Stanlow

Last reported at 2015-May-28 07:33 UTC. Time now 2015-May-28 08:03 UTC.
Position N 53°23' W 003°00'.

Length 39 m.

Type: Tug. MMSI: 235010620.

Date/timePositionNaut miles runAvg speedWind from/ knotsBaromVisibWave heightAir tempDewpointWater temp
2015-May-28 07:33N 53°23' W 003°00'2 2.2
2015-May-28 06:33N 53°25' W 003°01'9 8.8
2015-May-28 05:33N 53°32' W 003°10'2 1.8
2015-May-28 04:33N 53°31' W 003°13'8 8.4
2015-May-28 03:33N 53°27' W 003°01'4 3.8
2015-May-28 02:29N 53°23' W 002°60'0 0.1
2015-May-28 01:33N 53°23' W 002°60'0 0.0
2015-May-28 00:33N 53°23' W 002°60'0 0.0
2015-May-27 23:33N 53°23' W 002°60'0 0.0
2015-May-27 22:33N 53°23' W 002°60'0 0.0
2015-May-27 21:27N 53°23' W 002°60'0 0.0
2015-May-27 20:33N 53°23' W 002°60'0 0.0
2015-May-27 19:33N 53°23' W 002°60'5 2.6
2015-May-27 17:33N 53°28' W 003°03'9 9.0
2015-May-27 16:33N 53°31' W 003°17'8 8.2
2015-May-27 15:33N 53°29' W 003°04'6 6.2
2015-May-27 14:32N 53°23' W 002°60'0 0.0
2015-May-27 13:26N 53°23' W 002°60'0 0.0
2015-May-27 12:32N 53°23' W 002°60'0 0.0
2015-May-27 11:32N 53°23' W 002°60'0 0.0
2015-May-27 10:29N 53°23' W 002°60'0 0.0
2015-May-27 09:29N 53°23' W 002°60'0 0.0
2015-May-27 08:32N 53°23' W 002°60'0 0.0
2015-May-27 07:32N 53°23' W 002°60'0 0.0
2015-May-27 06:32N 53°23' W 002°60'0 0.0
2015-May-27 05:32N 53°23' W 002°60'0 0.0
2015-May-27 04:29N 53°23' W 002°60'0 0.0
2015-May-27 03:32N 53°23' W 002°60'0 0.0
2015-May-27 02:29N 53°23' W 002°60'0 0.0
2015-May-27 01:28N 53°23' W 002°60'0 0.0
2015-May-27 00:31N 53°23' W 002°60'0 0.0
2015-May-26 23:31N 53°23' W 002°60'0 0.0
2015-May-26 22:31N 53°23' W 002°60'0 0.0
2015-May-26 21:31N 53°23' W 002°60'0 0.0
2015-May-26 20:31N 53°23' W 002°60'0 0.0
2015-May-26 19:31N 53°23' W 002°60'0 0.0
2015-May-26 18:31N 53°23' W 002°60'0 0.0
2015-May-26 17:31N 53°23' W 002°60'0 0.0
2015-May-26 16:31N 53°23' W 002°60'0 0.0
2015-May-26 15:25N 53°23' W 002°60'0 0.0
2015-May-26 14:31N 53°23' W 002°60'0 0.0
2015-May-26 13:31N 53°23' W 002°60'0 0.0
2015-May-26 12:31N 53°23' W 002°60'0 0.0
2015-May-26 11:31N 53°23' W 002°60'0 0.0
2015-May-26 10:31N 53°23' W 002°60'0 0.0
2015-May-26 09:31N 53°23' W 002°60'0 0.0
2015-May-26 08:28N 53°23' W 002°60'0 0.0
2015-May-26 07:28N 53°23' W 002°60'0 0.0
2015-May-26 06:31N 53°23' W 002°60'0 0.0
2015-May-26 05:31N 53°23' W 002°60'2 2.1
2015-May-26 04:33N 53°25' W 003°01'9 9.2
2015-May-26 03:33N 53°32' W 003°11'1 0.7
2015-May-26 02:33N 53°31' W 003°12'8 8.0
2015-May-26 01:33N 53°26' W 003°01'1 1.1
2015-May-26 00:31N 53°25' W 003°00'0 0.0
2015-May-25 23:31N 53°25' W 003°00'0 0.0
2015-May-25 22:31N 53°25' W 003°00'0 0.0
2015-May-25 21:28N 53°25' W 003°00'0 0.0
2015-May-25 20:31N 53°25' W 003°00'0 0.0
2015-May-25 19:31N 53°25' W 003°00'0 0.0
2015-May-25 18:31N 53°25' W 003°00'0 0.0
2015-May-25 17:28N 53°25' W 003°00'0 0.0
2015-May-25 16:31N 53°25' W 003°00'2 1.7
2015-May-25 15:28N 53°27' W 003°01'0 0.4
2015-May-25 14:33N 53°27' W 003°01'0 0.4
2015-May-25 13:33N 53°27' W 003°02'3 2.5
2015-May-25 12:33N 53°25' W 003°00'2 1.9
2015-May-25 11:33N 53°26' W 003°01'2 2.1
2015-May-25 10:33N 53°28' W 003°03'4 3.9
2015-May-25 09:33N 53°25' W 003°00'2 1.7
2015-May-25 08:31N 53°23' W 003°00'0 0.0
2015-May-25 07:31N 53°23' W 003°00'0 0.0
2015-May-25 06:31N 53°23' W 003°00'0 0.0
2015-May-25 05:31N 53°23' W 003°00'0 0.0
2015-May-25 04:31N 53°23' W 003°00'0 0.0
2015-May-25 03:31N 53°23' W 003°00'0 0.1
2015-May-25 02:29N 53°23' W 002°60'0 0.1
2015-May-25 01:31N 53°23' W 002°60'0 0.0
2015-May-25 00:31N 53°23' W 002°60'0 0.0
2015-May-24 23:31N 53°23' W 002°60'0 0.0
2015-May-24 22:31N 53°23' W 002°60'0 0.0
2015-May-24 21:31N 53°23' W 002°60'0 0.0
2015-May-24 20:28N 53°23' W 002°60'0 0.0
2015-May-24 19:31N 53°23' W 002°60'0 0.0
2015-May-24 18:28N 53°23' W 002°60'0 0.0
2015-May-24 17:31N 53°23' W 002°60'0 0.0
2015-May-24 16:28N 53°23' W 002°60'0 0.0
2015-May-24 15:22N 53°23' W 002°60'0 0.0
2015-May-24 14:31N 53°23' W 002°60'0 0.0
2015-May-24 13:28N 53°23' W 002°60'0 0.0
2015-May-24 12:31N 53°23' W 002°60'0 0.0
2015-May-24 11:31N 53°23' W 002°60'0 0.0
2015-May-24 10:31N 53°23' W 002°60'0 0.0
2015-May-24 09:31N 53°23' W 002°60'2 1.9
2015-May-24 08:33N 53°24' W 003°00'1 0.7
2015-May-24 07:32N 53°24' W 003°00'1 1.0
2015-May-24 06:33N 53°23' W 002°60'0 0.2
2015-May-24 05:31N 53°23' W 002°60'0 0.0
2015-May-24 04:28N 53°23' W 002°60'0 0.0
2015-May-24 03:28N 53°23' W 002°60'0 0.0
2015-May-24 02:31N 53°23' W 002°60'0 0.0
2015-May-24 01:31N 53°23' W 002°60'0 0.0
2015-May-24 00:28N 53°23' W 002°60'0 0.0
2015-May-23 23:31N 53°23' W 002°60'0 0.0
2015-May-23 22:28N 53°23' W 002°60'0 0.0
2015-May-23 21:31N 53°23' W 002°60'0 0.0
2015-May-23 20:31N 53°23' W 002°60'0 0.0
2015-May-23 19:28N 53°23' W 002°60'0 0.0
2015-May-23 18:31N 53°23' W 002°60'0 0.0
2015-May-23 17:31N 53°23' W 002°60'0 0.0
2015-May-23 16:22N 53°23' W 002°60'0 0.0
2015-May-23 15:28N 53°23' W 002°60'0 0.5
2015-May-23 14:31N 53°23' W 003°00'6 5.8
2015-May-23 13:33N 53°28' W 003°04'9 9.0
2015-May-23 12:33N 53°31' W 003°18'8 7.8
2015-May-23 11:33N 53°30' W 003°05'7 7.5
2015-May-23 10:34N 53°23' W 002°60'0 0.3
2015-May-23 09:31N 53°23' W 002°60'0 0.0
2015-May-23 08:31N 53°23' W 002°60'0 0.0
2015-May-23 07:31N 53°23' W 002°60'0 0.0
2015-May-23 06:28N 53°23' W 002°60'0 0.0
2015-May-23 05:25N 53°23' W 002°60'0 0.0
2015-May-23 04:31N 53°23' W 002°60'0 0.0
2015-May-23 03:25N 53°23' W 002°60'0 0.0
2015-May-23 02:31N 53°23' W 002°60'0 0.0
2015-May-23 01:28N 53°23' W 002°60'0 0.0
2015-May-23 00:31N 53°23' W 002°60'0 0.0
2015-May-22 23:31N 53°23' W 002°60'0 0.0
2015-May-22 22:31N 53°23' W 002°60'0 0.0
2015-May-22 21:31N 53°23' W 002°60'0 0.0
2015-May-22 20:31N 53°23' W 002°60'0 0.0
2015-May-22 19:31N 53°23' W 002°60'0 0.0
2015-May-22 18:31N 53°23' W 002°60'0 0.0
2015-May-22 17:31N 53°23' W 002°60'0 0.0
2015-May-22 16:28N 53°23' W 002°60'0 0.0
2015-May-22 15:31N 53°23' W 002°60'0 0.0
2015-May-22 14:31N 53°23' W 002°60'0 0.0
2015-May-22 13:31N 53°23' W 002°60'0 0.0
2015-May-22 12:31N 53°23' W 002°60'0 0.0
2015-May-22 11:31N 53°23' W 002°60'0 0.0
2015-May-22 10:31N 53°23' W 002°60'0 0.0
2015-May-22 09:31N 53°23' W 002°60'0 0.0
2015-May-22 08:31N 53°23' W 002°60'0 0.0
2015-May-22 07:31N 53°23' W 002°60'0 0.0
2015-May-22 06:34N 53°23' W 002°60'0 0.0
2015-May-22 05:33N 53°23' W 002°60'0 0.0
2015-May-22 04:33N 53°23' W 002°60'0 0.0
2015-May-22 03:33N 53°23' W 002°60'0 0.0
2015-May-22 02:33N 53°23' W 002°60'0 0.2
2015-May-22 01:28N 53°23' W 003°00'4 4.9
2015-May-22 00:33N 53°27' W 003°02'8 8.4
2015-May-21 23:33N 53°31' W 003°15'6 6.1
2015-May-21 22:33N 53°29' W 003°05'4 3.9
2015-May-21 21:32N 53°26' W 003°01'1 0.9
2015-May-21 20:29N 53°25' W 003°00'0 0.0
2015-May-21 19:32N 53°25' W 003°00'0 0.0
2015-May-21 18:32N 53°25' W 003°00'0 0.0
2015-May-21 17:32N 53°25' W 003°00'0 0.0
2015-May-21 16:32N 53°25' W 003°00'0 0.0
2015-May-21 15:32N 53°25' W 003°00'0 0.0
2015-May-21 14:32N 53°25' W 003°00'2 1.9
2015-May-21 13:29N 53°27' W 003°01'0 0.4
2015-May-21 12:33N 53°27' W 003°01'2 1.6
2015-May-21 11:31N 53°25' W 003°00'0 0.0
2015-May-21 10:31N 53°25' W 003°00'0 0.0
2015-May-21 09:31N 53°25' W 003°00'0 0.0
2015-May-21 08:31N 53°25' W 003°00'0 0.0
2015-May-21 07:31N 53°25' W 003°00'0 0.0
2015-May-21 06:31N 53°25' W 003°00'0 0.0
2015-May-21 05:31N 53°25' W 003°00'0 0.0
2015-May-21 04:31N 53°25' W 003°00'0 0.0
2015-May-21 03:28N 53°25' W 003°00'0 0.0
2015-May-21 02:31N 53°25' W 003°00'0 0.0
2015-May-21 01:31N 53°25' W 003°00'0 0.0
2015-May-21 00:28N 53°25' W 003°00'0 0.0
2015-May-20 23:31N 53°25' W 003°00'0 0.0
2015-May-20 22:31N 53°25' W 003°00'2 1.5
2015-May-20 21:32N 53°27' W 003°01'4 4.2
2015-May-20 20:30N 53°23' W 002°60'0 0.2
2015-May-20 19:28N 53°23' W 003°00'0 0.0
2015-May-20 18:31N 53°23' W 003°00'0 0.0
2015-May-20 17:31N 53°23' W 003°00'0 0.0
2015-May-20 16:31N 53°23' W 003°00'0 0.0
2015-May-20 15:31N 53°23' W 003°00'0 0.0
2015-May-20 14:31N 53°23' W 003°00'0 0.0
2015-May-20 13:31N 53°23' W 003°00'0 0.0
2015-May-20 12:31N 53°23' W 003°00'0 0.0
2015-May-20 11:31N 53°23' W 003°00'0 0.0
2015-May-20 10:31N 53°23' W 003°00'0 0.0
2015-May-20 09:25N 53°23' W 003°00'0 0.0
2015-May-20 08:31N 53°23' W 003°00'0 0.0
2015-May-20 07:31N 53°23' W 003°00'0 0.0
2015-May-20 06:33N 53°23' W 003°00'0 0.0
2015-May-20 05:33N 53°23' W 003°00'0 0.0
2015-May-20 04:33N 53°23' W 003°00'0 0.0
2015-May-20 03:33N 53°23' W 003°00'0 0.0
2015-May-20 02:33N 53°23' W 003°00'0 0.0
2015-May-20 01:33N 53°23' W 003°00'0 0.0
2015-May-20 00:33N 53°23' W 003°00'0 0.0
2015-May-19 23:33N 53°23' W 003°00'0 0.0
2015-May-19 22:33N 53°23' W 003°00'0 0.1
2015-May-19 21:33N 53°23' W 002°60'1 1.4
2015-May-19 20:32N 53°24' W 003°00'0 0.0
2015-May-19 19:33N 53°24' W 002°60'1 1.5
2015-May-19 18:32N 53°23' W 003°00'0 0.0
2015-May-19 17:32N 53°23' W 003°00'0 0.0
2015-May-19 16:32N 53°23' W 003°00'0 0.0
2015-May-19 15:26N 53°23' W 003°00'0 0.0
2015-May-19 14:32N 53°23' W 003°00'0 0.0
2015-May-19 13:32N 53°23' W 003°00'0 0.0
2015-May-19 12:32N 53°23' W 003°00'0 0.0
2015-May-19 11:32N 53°23' W 003°00'0 0.0
2015-May-19 10:32N 53°23' W 003°00'0 0.0
2015-May-19 09:32N 53°23' W 003°00'0 0.0
2015-May-19 08:29N 53°23' W 003°00'0 0.0
2015-May-19 07:32N 53°23' W 003°00'0 0.0
2015-May-19 06:29N 53°23' W 003°00'0 0.0
2015-May-19 05:32N 53°23' W 003°00'0 0.0
2015-May-19 04:32N 53°23' W 003°00'0 0.0
2015-May-19 03:32N 53°23' W 003°00'0 0.0
2015-May-19 02:32N 53°23' W 003°00'0 0.0
2015-May-19 01:32N 53°23' W 003°00'0 0.0
2015-May-19 00:32N 53°23' W 003°00'0 0.0
2015-May-18 23:29N 53°23' W 003°00'0 0.0
2015-May-18 22:29N 53°23' W 003°00'0 0.0
2015-May-18 21:28N 53°23' W 003°00'0 0.0
2015-May-18 20:22N 53°23' W 003°00'0 0.0
2015-May-18 19:28N 53°23' W 003°00'0 0.0
2015-May-18 18:31N 53°23' W 003°00'0 0.0
2015-May-18 17:31N 53°23' W 003°00'0 0.0
2015-May-18 16:31N 53°23' W 003°00'0 0.0
2015-May-18 15:31N 53°23' W 003°00'0 0.0
2015-May-18 14:31N 53°23' W 003°00'0 0.0
2015-May-18 13:28N 53°23' W 003°00'0 0.0
2015-May-18 12:31N 53°23' W 003°00'0 0.0
2015-May-18 11:31N 53°23' W 003°00'0 0.0
2015-May-18 10:25N 53°23' W 003°00'0 0.0
2015-May-18 09:31N 53°23' W 003°00'0 0.0
2015-May-18 08:31N 53°23' W 003°00'  

Dump ship's entire track history